sensor_id;sensor_type;location;lat;lon;timestamp;pressure;altitude;pressure_sealevel;temperature
82774;BMP280;72508;45.118;20.728;2023-11-21T00:09:01;100137.31;;;11.33
82774;BMP280;72508;45.118;20.728;2023-11-21T00:19:03;100128.50;;;11.28
82774;BMP280;72508;45.118;20.728;2023-11-21T00:29:05;100122.13;;;11.23
82774;BMP280;72508;45.118;20.728;2023-11-21T00:39:09;100127.81;;;11.20
82774;BMP280;72508;45.118;20.728;2023-11-21T00:49:13;100132.31;;;11.13
82774;BMP280;72508;45.118;20.728;2023-11-21T00:59:14;100122.69;;;11.07
82774;BMP280;72508;45.118;20.728;2023-11-21T01:09:16;100098.09;;;11.08
82774;BMP280;72508;45.118;20.728;2023-11-21T01:19:21;100102.47;;;11.14
82774;BMP280;72508;45.118;20.728;2023-11-21T01:29:23;100106.09;;;11.13
82774;BMP280;72508;45.118;20.728;2023-11-21T01:39:25;100100.56;;;11.21
82774;BMP280;72508;45.118;20.728;2023-11-21T01:49:27;100100.41;;;11.16
82774;BMP280;72508;45.118;20.728;2023-11-21T01:59:33;100086.31;;;11.17
82774;BMP280;72508;45.118;20.728;2023-11-21T02:09:36;100085.84;;;11.20
82774;BMP280;72508;45.118;20.728;2023-11-21T02:19:39;100075.81;;;11.17
82774;BMP280;72508;45.118;20.728;2023-11-21T02:29:41;100071.19;;;11.01
82774;BMP280;72508;45.118;20.728;2023-11-21T02:39:43;100066.34;;;10.98
82774;BMP280;72508;45.118;20.728;2023-11-21T02:49:45;100067.56;;;11.02
82774;BMP280;72508;45.118;20.728;2023-11-21T02:59:47;100049.75;;;11.04
82774;BMP280;72508;45.118;20.728;2023-11-21T03:09:48;100050.94;;;10.90
82774;BMP280;72508;45.118;20.728;2023-11-21T03:19:50;100044.38;;;10.80
82774;BMP280;72508;45.118;20.728;2023-11-21T03:29:53;100029.56;;;10.74
82774;BMP280;72508;45.118;20.728;2023-11-21T03:39:56;100019.50;;;10.71
82774;BMP280;72508;45.118;20.728;2023-11-21T03:49:57;100012.09;;;10.68
82774;BMP280;72508;45.118;20.728;2023-11-21T03:59:59;100026.25;;;10.42
82774;BMP280;72508;45.118;20.728;2023-11-21T04:10:01;100018.84;;;10.39
82774;BMP280;72508;45.118;20.728;2023-11-21T04:20:07;100006.91;;;10.25
82774;BMP280;72508;45.118;20.728;2023-11-21T04:30:11;99992.09;;;10.19
82774;BMP280;72508;45.118;20.728;2023-11-21T04:40:13;99981.03;;;10.17
82774;BMP280;72508;45.118;20.728;2023-11-21T04:50:15;99974.22;;;10.09
82774;BMP280;72508;45.118;20.728;2023-11-21T05:00:17;99974.94;;;9.98
82774;BMP280;72508;45.118;20.728;2023-11-21T05:10:19;99979.91;;;10.06
82774;BMP280;72508;45.118;20.728;2023-11-21T05:20:21;99971.34;;;10.17
82774;BMP280;72508;45.118;20.728;2023-11-21T05:30:23;99990.88;;;10.14
82774;BMP280;72508;45.118;20.728;2023-11-21T05:40:24;99979.13;;;10.24
82774;BMP280;72508;45.118;20.728;2023-11-21T05:50:27;99987.91;;;10.29
82774;BMP280;72508;45.118;20.728;2023-11-21T06:00:29;99982.84;;;10.34
82774;BMP280;72508;45.118;20.728;2023-11-21T06:10:31;100001.00;;;10.29
82774;BMP280;72508;45.118;20.728;2023-11-21T06:20:34;100003.34;;;10.37
82774;BMP280;72508;45.118;20.728;2023-11-21T06:30:39;99995.97;;;10.53
82774;BMP280;72508;45.118;20.728;2023-11-21T06:40:41;99995.00;;;10.66
82774;BMP280;72508;45.118;20.728;2023-11-21T06:50:42;99981.81;;;10.72
82774;BMP280;72508;45.118;20.728;2023-11-21T07:00:44;99985.13;;;10.98
82774;BMP280;72508;45.118;20.728;2023-11-21T07:10:48;99975.31;;;11.23
82774;BMP280;72508;45.118;20.728;2023-11-21T07:20:50;99960.06;;;11.44
82774;BMP280;72508;45.118;20.728;2023-11-21T07:30:53;99963.53;;;11.56
82774;BMP280;72508;45.118;20.728;2023-11-21T07:40:55;99943.91;;;11.71
82774;BMP280;72508;45.118;20.728;2023-11-21T07:50:57;99939.91;;;11.80
82774;BMP280;72508;45.118;20.728;2023-11-21T08:01:05;99953.16;;;11.97
82774;BMP280;72508;45.118;20.728;2023-11-21T08:11:10;99923.34;;;12.15
82774;BMP280;72508;45.118;20.728;2023-11-21T08:21:12;99918.34;;;12.42
82774;BMP280;72508;45.118;20.728;2023-11-21T08:31:14;99919.22;;;12.76
82774;BMP280;72508;45.118;20.728;2023-11-21T08:41:20;99932.03;;;13.35
82774;BMP280;72508;45.118;20.728;2023-11-21T08:51:25;99922.66;;;14.00
82774;BMP280;72508;45.118;20.728;2023-11-21T09:01:27;99913.06;;;14.38
82774;BMP280;72508;45.118;20.728;2023-11-21T09:11:31;99892.28;;;14.68
82774;BMP280;72508;45.118;20.728;2023-11-21T09:21:34;99879.94;;;15.11
82774;BMP280;72508;45.118;20.728;2023-11-21T09:31:37;99866.84;;;15.27
82774;BMP280;72508;45.118;20.728;2023-11-21T09:41:46;99853.56;;;15.11
82774;BMP280;72508;45.118;20.728;2023-11-21T09:51:53;99830.50;;;15.39
82774;BMP280;72508;45.118;20.728;2023-11-21T10:01:59;99808.94;;;15.57
82774;BMP280;72508;45.118;20.728;2023-11-21T10:12:01;99809.53;;;15.75
82774;BMP280;72508;45.118;20.728;2023-11-21T10:22:05;99811.38;;;15.79
82774;BMP280;72508;45.118;20.728;2023-11-21T10:32:08;99802.34;;;15.65
82774;BMP280;72508;45.118;20.728;2023-11-21T10:42:12;99782.56;;;15.68
82774;BMP280;72508;45.118;20.728;2023-11-21T10:52:14;99769.34;;;15.63
82774;BMP280;72508;45.118;20.728;2023-11-21T11:02:26;99766.94;;;15.51
82774;BMP280;72508;45.118;20.728;2023-11-21T11:12:29;99772.00;;;15.68
82774;BMP280;72508;45.118;20.728;2023-11-21T11:22:42;99767.78;;;15.61
82774;BMP280;72508;45.118;20.728;2023-11-21T11:33:20;99808.34;;;15.40
82774;BMP280;72508;45.118;20.728;2023-11-21T11:43:27;99803.00;;;15.25
82774;BMP280;72508;45.118;20.728;2023-11-21T11:53:35;99790.75;;;15.08
82774;BMP280;72508;45.118;20.728;2023-11-21T12:03:37;99776.03;;;15.07
82774;BMP280;72508;45.118;20.728;2023-11-21T12:13:40;99770.75;;;15.07
82774;BMP280;72508;45.118;20.728;2023-11-21T12:23:41;99774.16;;;15.08
82774;BMP280;72508;45.118;20.728;2023-11-21T12:33:43;99760.13;;;14.97
82774;BMP280;72508;45.118;20.728;2023-11-21T12:43:45;99769.53;;;14.78
82774;BMP280;72508;45.118;20.728;2023-11-21T12:53:50;99766.28;;;14.65
82774;BMP280;72508;45.118;20.728;2023-11-21T13:03:52;99771.97;;;14.52
82774;BMP280;72508;45.118;20.728;2023-11-21T13:13:53;99773.00;;;14.46
82774;BMP280;72508;45.118;20.728;2023-11-21T13:23:55;99787.69;;;14.42
82774;BMP280;72508;45.118;20.728;2023-11-21T13:33:57;99791.28;;;14.31
82774;BMP280;72508;45.118;20.728;2023-11-21T13:44:06;99790.84;;;14.12
82774;BMP280;72508;45.118;20.728;2023-11-21T13:54:27;99794.19;;;14.02
82774;BMP280;72508;45.118;20.728;2023-11-21T14:04:29;99799.59;;;13.90
82774;BMP280;72508;45.118;20.728;2023-11-21T14:14:51;99816.03;;;13.80
82774;BMP280;72508;45.118;20.728;2023-11-21T14:24:52;99824.94;;;13.74
82774;BMP280;72508;45.118;20.728;2023-11-21T14:34:57;99827.50;;;13.69
82774;BMP280;72508;45.118;20.728;2023-11-21T14:44:59;99824.22;;;13.57
82774;BMP280;72508;45.118;20.728;2023-11-21T14:55:04;99835.66;;;13.46
82774;BMP280;72508;45.118;20.728;2023-11-21T15:05:26;99830.63;;;13.44
82774;BMP280;72508;45.118;20.728;2023-11-21T15:15:29;99844.63;;;13.50
82774;BMP280;72508;45.118;20.728;2023-11-21T15:25:32;99848.25;;;13.44
82774;BMP280;72508;45.118;20.728;2023-11-21T15:35:35;99849.44;;;13.36
82774;BMP280;72508;45.118;20.728;2023-11-21T15:45:39;99856.00;;;13.33
82774;BMP280;72508;45.118;20.728;2023-11-21T15:55:41;99847.56;;;13.31
82774;BMP280;72508;45.118;20.728;2023-11-21T16:05:43;99842.75;;;13.28
82774;BMP280;72508;45.118;20.728;2023-11-21T16:15:45;99842.75;;;13.28
82774;BMP280;72508;45.118;20.728;2023-11-21T16:25:47;99856.97;;;13.27
82774;BMP280;72508;45.118;20.728;2023-11-21T16:35:55;99846.34;;;13.22
82774;BMP280;72508;45.118;20.728;2023-11-21T16:45:57;99835.53;;;13.18
82774;BMP280;72508;45.118;20.728;2023-11-21T16:55:59;99849.63;;;13.29
82774;BMP280;72508;45.118;20.728;2023-11-21T17:06:02;99837.19;;;13.25
82774;BMP280;72508;45.118;20.728;2023-11-21T17:16:06;99843.09;;;13.15
82774;BMP280;72508;45.118;20.728;2023-11-21T17:26:08;99834.66;;;13.13
82774;BMP280;72508;45.118;20.728;2023-11-21T17:36:10;99839.13;;;13.12
82774;BMP280;72508;45.118;20.728;2023-11-21T17:46:21;99848.88;;;13.12
82774;BMP280;72508;45.118;20.728;2023-11-21T17:56:23;99831.47;;;13.11
82774;BMP280;72508;45.118;20.728;2023-11-21T18:06:25;99826.22;;;13.11
82774;BMP280;72508;45.118;20.728;2023-11-21T18:16:26;99821.97;;;13.10
82774;BMP280;72508;45.118;20.728;2023-11-21T18:26:28;99824.56;;;13.05
82774;BMP280;72508;45.118;20.728;2023-11-21T18:36:30;99821.38;;;13.03
82774;BMP280;72508;45.118;20.728;2023-11-21T18:46:35;99827.41;;;13.03
82774;BMP280;72508;45.118;20.728;2023-11-21T18:56:37;99833.53;;;13.09
82774;BMP280;72508;45.118;20.728;2023-11-21T19:06:39;99830.53;;;13.00
82774;BMP280;72508;45.118;20.728;2023-11-21T19:16:42;99839.78;;;13.03
82774;BMP280;72508;45.118;20.728;2023-11-21T19:26:47;99838.66;;;12.99
82774;BMP280;72508;45.118;20.728;2023-11-21T19:36:49;99849.16;;;12.99
82774;BMP280;72508;45.118;20.728;2023-11-21T19:46:51;99873.66;;;12.99
82774;BMP280;72508;45.118;20.728;2023-11-21T19:56:52;99861.28;;;13.00
82774;BMP280;72508;45.118;20.728;2023-11-21T20:06:54;99867.00;;;12.96
82774;BMP280;72508;45.118;20.728;2023-11-21T20:16:56;99876.28;;;12.99
82774;BMP280;72508;45.118;20.728;2023-11-21T20:26:57;99880.00;;;13.03
82774;BMP280;72508;45.118;20.728;2023-11-21T20:37:00;99884.69;;;13.01
82774;BMP280;72508;45.118;20.728;2023-11-21T20:47:06;99886.28;;;13.02
82774;BMP280;72508;45.118;20.728;2023-11-21T20:57:07;99896.97;;;12.95
82774;BMP280;72508;45.118;20.728;2023-11-21T21:07:11;99917.75;;;12.97
82774;BMP280;72508;45.118;20.728;2023-11-21T21:17:12;99917.50;;;12.99
82774;BMP280;72508;45.118;20.728;2023-11-21T21:27:14;99907.00;;;12.99
82774;BMP280;72508;45.118;20.728;2023-11-21T21:37:15;99924.25;;;12.94
82774;BMP280;72508;45.118;20.728;2023-11-21T21:47:17;99917.81;;;12.85
82774;BMP280;72508;45.118;20.728;2023-11-21T21:57:19;99922.28;;;12.85
82774;BMP280;72508;45.118;20.728;2023-11-21T22:07:20;99926.97;;;12.83
82774;BMP280;72508;45.118;20.728;2023-11-21T22:17:23;99929.28;;;12.79
82774;BMP280;72508;45.118;20.728;2023-11-21T22:27:25;99909.22;;;12.73
82774;BMP280;72508;45.118;20.728;2023-11-21T22:37:27;99922.91;;;12.75
82774;BMP280;72508;45.118;20.728;2023-11-21T22:47:29;99915.28;;;12.73
82774;BMP280;72508;45.118;20.728;2023-11-21T22:57:30;99919.78;;;12.78
82774;BMP280;72508;45.118;20.728;2023-11-21T23:07:33;99911.91;;;12.78
82774;BMP280;72508;45.118;20.728;2023-11-21T23:17:34;99902.66;;;12.76
82774;BMP280;72508;45.118;20.728;2023-11-21T23:27:36;99922.72;;;12.65
82774;BMP280;72508;45.118;20.728;2023-11-21T23:37:38;99911.94;;;12.49
82774;BMP280;72508;45.118;20.728;2023-11-21T23:47:42;99928.63;;;12.43
82774;BMP280;72508;45.118;20.728;2023-11-21T23:57:44;99929.28;;;12.50
